createdAt,value
2023-02-19T00:01:51.534Z,10.10
2023-02-19T00:04:20.298Z,6.80
2023-02-19T00:06:48.770Z,9.80
2023-02-19T00:09:18.112Z,8.30
2023-02-19T00:11:48.081Z,10.20
2023-02-19T00:14:20.674Z,10.50
2023-02-19T00:16:49.306Z,12.00
2023-02-19T00:19:19.107Z,11.10
2023-02-19T00:21:47.528Z,6.80
2023-02-19T00:24:15.617Z,10.90
2023-02-19T00:26:44.331Z,8.00
2023-02-19T00:29:17.494Z,9.30
2023-02-19T00:31:45.762Z,13.60
2023-02-19T00:34:14.234Z,9.80
2023-02-19T00:36:42.948Z,9.60
2023-02-19T00:39:18.548Z,9.20
2023-02-19T00:41:46.873Z,7.90
2023-02-19T00:44:15.035Z,9.70
2023-02-19T00:46:49.680Z,7.90
2023-02-19T00:49:22.343Z,8.80
2023-02-19T00:51:51.918Z,8.10
2023-02-19T00:54:20.521Z,8.40
2023-02-19T00:56:48.868Z,8.90
2023-02-19T00:59:17.727Z,9.50
2023-02-19T01:01:46.325Z,8.80
2023-02-19T01:04:18.163Z,9.80
2023-02-19T01:06:46.319Z,8.40
2023-02-19T01:09:14.619Z,11.80
2023-02-19T01:11:44.109Z,12.20
2023-02-19T01:14:12.173Z,16.20
2023-02-19T01:16:40.224Z,9.70
2023-02-19T01:19:09.961Z,9.70
2023-02-19T01:21:37.872Z,14.10
2023-02-19T01:24:06.127Z,11.50
2023-02-19T01:26:34.570Z,8.80
2023-02-19T01:29:05.093Z,11.60
2023-02-19T01:31:33.313Z,8.00
2023-02-19T01:34:03.610Z,7.80
2023-02-19T01:36:36.897Z,9.20
2023-02-19T01:39:06.196Z,6.20
2023-02-19T01:41:39.694Z,4.30
2023-02-19T01:44:14.830Z,8.60
2023-02-19T01:46:43.209Z,10.60
2023-02-19T01:49:20.728Z,9.60
2023-02-19T01:51:53.068Z,8.50
2023-02-19T01:54:22.409Z,7.80
2023-02-19T01:56:50.511Z,8.40
2023-02-19T01:59:18.588Z,6.30
2023-02-19T02:01:49.344Z,11.40
2023-02-19T02:04:18.420Z,10.10
2023-02-19T02:06:54.298Z,7.10
2023-02-19T02:09:47.982Z,11.50
2023-02-19T02:12:16.095Z,8.50
2023-02-19T02:14:45.664Z,9.30
2023-02-19T02:17:17.829Z,9.30
2023-02-19T02:20:07.037Z,16.20
2023-02-19T02:22:50.118Z,14.70
2023-02-19T02:25:47.252Z,7.00
2023-02-19T02:28:42.202Z,7.30
2023-02-19T02:31:16.253Z,9.80
2023-02-19T02:33:54.695Z,9.80
2023-02-19T02:36:26.678Z,10.00
2023-02-19T02:38:54.814Z,9.90
2023-02-19T02:41:23.126Z,11.80
2023-02-19T02:43:52.000Z,12.80
2023-02-19T02:46:24.356Z,16.10
2023-02-19T02:49:00.202Z,9.50
2023-02-19T02:51:39.075Z,8.40
2023-02-19T02:54:41.849Z,10.00
2023-02-19T02:57:15.414Z,10.70
2023-02-19T02:59:55.766Z,10.30
2023-02-19T03:02:25.491Z,14.70
2023-02-19T03:05:18.670Z,10.20
2023-02-19T03:07:49.327Z,12.00
2023-02-19T03:10:25.427Z,9.20
2023-02-19T03:13:25.497Z,13.10
2023-02-19T03:16:18.864Z,9.50
2023-02-19T03:19:07.939Z,11.70
2023-02-19T03:21:38.420Z,7.10
2023-02-19T03:24:30.036Z,9.30
2023-02-19T03:27:00.225Z,12.00
2023-02-19T03:29:31.986Z,10.00
2023-02-19T03:32:07.238Z,12.50
2023-02-19T03:34:37.797Z,8.60
2023-02-19T03:37:19.332Z,13.90
2023-02-19T03:39:52.103Z,10.20
2023-02-19T03:42:32.518Z,13.40
2023-02-19T03:45:13.596Z,11.50
2023-02-19T03:48:15.332Z,8.80
2023-02-19T03:50:50.138Z,9.50
2023-02-19T03:53:29.841Z,17.90
2023-02-19T03:56:21.465Z,10.70
2023-02-19T03:58:54.901Z,7.70
2023-02-19T04:01:30.421Z,12.50
2023-02-19T04:04:05.062Z,5.90
2023-02-19T04:06:33.303Z,11.40
2023-02-19T04:09:03.007Z,13.60
2023-02-19T04:11:31.333Z,10.50
2023-02-19T04:14:05.194Z,11.10
2023-02-19T04:16:33.974Z,13.50
2023-02-19T04:19:11.878Z,11.40
2023-02-19T04:21:39.973Z,9.90
2023-02-19T04:24:18.672Z,11.50
2023-02-19T04:26:46.691Z,10.50
2023-02-19T04:29:14.718Z,10.90
2023-02-19T04:31:42.681Z,9.10
2023-02-19T04:34:10.873Z,14.30
2023-02-19T04:36:38.872Z,11.60
2023-02-19T04:39:08.233Z,11.10
2023-02-19T04:41:36.693Z,9.40
2023-02-19T04:44:04.959Z,10.80
2023-02-19T04:46:33.067Z,11.60
2023-02-19T04:49:01.110Z,11.80
2023-02-19T04:51:29.351Z,7.80
2023-02-19T04:53:57.416Z,14.90
2023-02-19T04:56:25.419Z,10.20
2023-02-19T04:58:53.469Z,9.20
2023-02-19T05:01:21.589Z,14.80
2023-02-19T05:03:49.667Z,11.40
2023-02-19T05:06:17.859Z,8.10
2023-02-19T05:08:45.947Z,12.40
2023-02-19T05:11:14.033Z,11.90
2023-02-19T05:13:42.131Z,10.50
2023-02-19T05:16:13.989Z,8.80
2023-02-19T05:18:42.916Z,15.70
2023-02-19T05:21:11.616Z,11.80
2023-02-19T05:23:39.864Z,13.20
2023-02-19T05:26:18.065Z,11.50
2023-02-19T05:28:46.723Z,8.30
2023-02-19T05:31:14.983Z,10.00
2023-02-19T05:33:44.353Z,13.80
2023-02-19T05:36:13.228Z,16.80
2023-02-19T05:38:41.543Z,10.90
2023-02-19T05:41:10.516Z,14.70
2023-02-19T05:43:39.720Z,8.80
2023-02-19T05:46:08.377Z,11.60
2023-02-19T05:48:36.504Z,15.10
2023-02-19T05:51:06.730Z,13.00
2023-02-19T05:53:35.076Z,11.60
2023-02-19T05:56:03.380Z,11.50
2023-02-19T05:58:31.648Z,11.40
2023-02-19T06:00:59.782Z,12.00
2023-02-19T06:03:28.411Z,8.90
2023-02-19T06:05:56.421Z,12.20
2023-02-19T06:08:24.432Z,8.80
2023-02-19T06:10:52.451Z,11.40
2023-02-19T06:13:21.866Z,12.40
2023-02-19T06:15:50.004Z,6.70
2023-02-19T06:18:18.159Z,12.70
2023-02-19T06:20:46.268Z,8.40
2023-02-19T06:23:14.381Z,10.60
2023-02-19T06:25:42.514Z,15.00
2023-02-19T06:28:10.679Z,10.30
2023-02-19T06:30:38.833Z,9.10
2023-02-19T06:33:08.953Z,9.20
2023-02-19T06:35:36.939Z,9.30
2023-02-19T06:38:05.479Z,11.30
2023-02-19T06:40:33.547Z,10.30
2023-02-19T06:43:01.904Z,9.90
2023-02-19T06:45:29.966Z,9.00
2023-02-19T06:47:58.577Z,10.00
2023-02-19T06:50:26.599Z,7.70
2023-02-19T06:52:54.697Z,10.60
2023-02-19T06:55:22.745Z,10.80
2023-02-19T06:57:50.808Z,9.70
2023-02-19T07:00:19.005Z,12.50
2023-02-19T07:02:47.141Z,9.50
2023-02-19T07:05:15.251Z,12.60
2023-02-19T07:07:45.956Z,13.50
2023-02-19T07:10:14.077Z,6.60
2023-02-19T07:12:42.036Z,13.00
2023-02-19T07:15:10.169Z,8.50
2023-02-19T07:17:38.131Z,11.90
2023-02-19T07:20:08.707Z,9.30
2023-02-19T07:22:37.019Z,9.60
2023-02-19T07:25:05.256Z,6.10
2023-02-19T07:27:33.280Z,14.20
2023-02-19T07:30:02.258Z,9.80
2023-02-19T07:32:30.362Z,12.20
2023-02-19T07:34:58.556Z,8.90
2023-02-19T07:37:26.643Z,6.50
2023-02-19T07:39:54.717Z,8.20
2023-02-19T07:42:22.820Z,10.80
2023-02-19T07:44:51.192Z,13.60
2023-02-19T07:47:19.299Z,12.70
2023-02-19T07:49:47.422Z,10.50
2023-02-19T07:52:15.424Z,8.50
2023-02-19T07:54:43.748Z,10.70
2023-02-19T07:57:11.722Z,7.80
2023-02-19T07:59:39.784Z,9.30
2023-02-19T08:02:36.458Z,8.10
2023-02-19T08:05:05.851Z,6.90
2023-02-19T08:07:34.569Z,11.30
2023-02-19T08:10:23.169Z,7.40
2023-02-19T08:13:19.565Z,9.60
2023-02-19T08:16:16.990Z,5.60
2023-02-19T08:18:48.475Z,7.90
2023-02-19T08:21:20.669Z,5.90
2023-02-19T08:23:51.240Z,7.70
2023-02-19T08:26:19.700Z,11.80
2023-02-19T08:28:48.433Z,8.30
2023-02-19T08:31:16.771Z,7.00
2023-02-19T08:33:44.887Z,10.10
2023-02-19T08:36:13.049Z,6.70
2023-02-19T08:38:41.219Z,7.50
2023-02-19T08:41:12.090Z,8.00
2023-02-19T08:43:43.782Z,8.50
2023-02-19T08:46:12.898Z,6.60
2023-02-19T08:48:43.750Z,9.40
2023-02-19T08:51:12.384Z,4.80
2023-02-19T08:53:41.587Z,9.90
2023-02-19T08:56:17.682Z,7.30
2023-02-19T08:58:47.650Z,7.50
2023-02-19T09:01:18.635Z,2.30
2023-02-19T09:03:47.552Z,9.50
2023-02-19T09:06:18.164Z,8.30
2023-02-19T09:08:47.597Z,7.90
2023-02-19T09:11:17.272Z,7.50
2023-02-19T09:13:46.298Z,12.60
2023-02-19T09:16:15.418Z,4.20
2023-02-19T09:18:46.132Z,8.20
2023-02-19T09:21:14.817Z,8.00
2023-02-19T09:23:43.071Z,7.40
2023-02-19T09:26:11.677Z,6.10
2023-02-19T09:28:44.040Z,9.30
2023-02-19T09:31:14.609Z,5.20
2023-02-19T09:33:47.966Z,6.80
2023-02-19T09:36:17.417Z,8.80
2023-02-19T09:38:46.961Z,7.00
2023-02-19T09:41:31.065Z,7.30
2023-02-19T09:44:05.263Z,7.00
2023-02-19T09:46:38.294Z,5.90
2023-02-19T09:49:17.867Z,4.20
2023-02-19T09:51:57.373Z,4.80
2023-02-19T09:54:31.875Z,10.20
2023-02-19T09:57:03.023Z,7.10
2023-02-19T09:59:41.225Z,5.90
2023-02-19T10:02:21.119Z,2.80
2023-02-19T10:04:51.427Z,6.30
2023-02-19T10:07:24.821Z,4.30
2023-02-19T10:10:10.557Z,5.80
2023-02-19T10:13:19.533Z,9.00
2023-02-19T10:15:52.251Z,9.40
2023-02-19T10:18:30.996Z,7.60
2023-02-19T10:21:01.529Z,5.30
2023-02-19T10:23:29.764Z,6.00
2023-02-19T10:26:01.343Z,6.30
2023-02-19T10:28:34.256Z,6.10
2023-02-19T10:31:07.426Z,7.10
2023-02-19T10:33:49.363Z,5.00
2023-02-19T10:36:37.398Z,3.00
2023-02-19T10:39:39.934Z,2.50
2023-02-19T10:42:15.488Z,5.20
2023-02-19T10:44:47.660Z,5.40
2023-02-19T10:47:22.247Z,6.70
2023-02-19T10:49:51.215Z,6.60
2023-02-19T10:52:29.845Z,3.60
2023-02-19T10:55:14.856Z,3.00
2023-02-19T10:57:43.274Z,2.80
2023-02-19T11:00:17.030Z,2.30
2023-02-19T11:02:47.040Z,3.00
2023-02-19T11:05:20.849Z,3.60
2023-02-19T11:07:51.319Z,2.70
2023-02-19T11:10:42.455Z,6.00
2023-02-19T11:13:25.461Z,4.80
2023-02-19T11:15:55.377Z,4.40
2023-02-19T11:18:49.047Z,4.70
2023-02-19T11:21:28.836Z,3.40
2023-02-19T11:23:57.097Z,4.00
2023-02-19T11:26:28.788Z,2.90
2023-02-19T11:29:02.849Z,3.60
2023-02-19T11:31:33.421Z,2.40
2023-02-19T11:34:29.927Z,4.80
2023-02-19T11:37:14.893Z,5.10
2023-02-19T11:39:45.144Z,5.80
2023-02-19T11:42:36.421Z,3.90
2023-02-19T11:45:15.885Z,3.40
2023-02-19T11:48:25.157Z,4.10
2023-02-19T11:51:21.612Z,3.40
2023-02-19T11:53:57.750Z,2.90
2023-02-19T11:56:33.874Z,3.20
2023-02-19T11:59:08.243Z,2.50
2023-02-19T12:01:54.429Z,1.80
2023-02-19T12:04:30.180Z,5.00
2023-02-19T12:07:17.648Z,3.80
2023-02-19T12:10:21.315Z,4.40
2023-02-19T12:12:50.226Z,3.10
2023-02-19T12:15:38.090Z,2.30
2023-02-19T12:18:20.030Z,3.80
2023-02-19T12:21:04.383Z,2.40
2023-02-19T12:24:10.377Z,1.60
2023-02-19T12:27:15.612Z,2.00
2023-02-19T12:29:58.870Z,1.90
2023-02-19T12:32:51.289Z,2.90
2023-02-19T12:35:37.135Z,3.00
2023-02-19T12:38:27.113Z,3.80
2023-02-19T12:40:55.308Z,1.50
2023-02-19T12:43:24.109Z,2.80
2023-02-19T12:45:58.399Z,2.20
2023-02-19T12:48:37.056Z,2.40
2023-02-19T12:51:09.555Z,3.10
2023-02-19T12:53:45.655Z,1.60
2023-02-19T12:56:36.739Z,1.60
2023-02-19T12:59:19.892Z,1.60
2023-02-19T13:01:58.571Z,2.90
2023-02-19T13:04:36.516Z,3.20
2023-02-19T13:07:21.744Z,3.10
2023-02-19T13:10:29.494Z,11.00
2023-02-19T13:13:00.526Z,4.50
2023-02-19T13:15:45.050Z,3.80
2023-02-19T13:18:21.471Z,4.70
2023-02-19T13:20:51.979Z,2.00
2023-02-19T13:23:43.123Z,3.60
2023-02-19T13:26:38.935Z,2.00
2023-02-19T13:29:25.529Z,2.30
2023-02-19T13:32:06.316Z,2.70
2023-02-19T13:34:40.347Z,2.10
2023-02-19T13:37:08.619Z,3.00
2023-02-19T13:39:36.700Z,5.40
2023-02-19T13:42:05.635Z,2.80
2023-02-19T13:44:34.448Z,3.10
2023-02-19T13:47:06.224Z,7.80
2023-02-19T13:49:34.390Z,1.10
2023-02-19T13:52:21.747Z,2.50
2023-02-19T13:54:49.881Z,4.90
2023-02-19T13:57:23.959Z,5.80
2023-02-19T13:59:58.427Z,3.00
2023-02-19T14:02:32.058Z,3.00
2023-02-19T14:05:02.669Z,4.70
2023-02-19T14:07:36.126Z,2.50
2023-02-19T14:10:05.501Z,3.40
2023-02-19T14:12:37.044Z,2.20
2023-02-19T14:15:44.041Z,4.20
2023-02-19T14:18:46.620Z,6.50
2023-02-19T14:21:46.638Z,3.60
2023-02-19T14:24:14.829Z,2.90
2023-02-19T14:26:43.075Z,2.90
2023-02-19T14:29:12.454Z,3.70
2023-02-19T14:31:40.869Z,4.10
2023-02-19T14:34:22.472Z,2.70
2023-02-19T14:36:53.037Z,4.40
2023-02-19T14:39:31.641Z,1.40
2023-02-19T14:42:01.163Z,2.70
2023-02-19T14:44:31.061Z,4.00
2023-02-19T14:47:03.887Z,7.00
2023-02-19T14:49:44.624Z,1.30
2023-02-19T14:52:17.704Z,4.10
2023-02-19T14:54:50.213Z,2.90
2023-02-19T14:57:24.434Z,3.40
2023-02-19T15:00:03.937Z,4.70
2023-02-19T15:02:32.405Z,3.00
2023-02-19T15:05:00.696Z,3.10
2023-02-19T15:07:30.894Z,6.50
2023-02-19T15:10:04.896Z,3.80
2023-02-19T15:12:39.554Z,4.20
2023-02-19T15:15:08.035Z,4.90
2023-02-19T15:17:36.492Z,9.10
2023-02-19T15:20:10.813Z,2.70
2023-02-19T15:22:40.108Z,8.20
2023-02-19T15:25:08.359Z,5.20
2023-02-19T15:27:37.775Z,1.20
2023-02-19T15:30:25.461Z,3.90
2023-02-19T15:32:57.633Z,4.00
2023-02-19T15:35:26.852Z,6.00
2023-02-19T15:37:57.903Z,1.80
2023-02-19T15:40:31.137Z,5.70
2023-02-19T15:43:00.844Z,5.60
2023-02-19T15:45:35.369Z,3.00
2023-02-19T15:48:13.763Z,2.20
2023-02-19T15:50:44.290Z,5.70
2023-02-19T15:53:25.081Z,3.90
2023-02-19T15:55:58.262Z,6.70
2023-02-19T15:58:37.147Z,6.20
2023-02-19T16:01:08.408Z,3.20
2023-02-19T16:03:37.010Z,4.30
2023-02-19T16:06:16.260Z,2.40
2023-02-19T16:09:02.285Z,3.20
2023-02-19T16:11:53.344Z,6.50
2023-02-19T16:14:32.350Z,3.50
2023-02-19T16:17:15.640Z,4.70
2023-02-19T16:19:44.118Z,3.60
2023-02-19T16:22:13.845Z,5.80
2023-02-19T16:24:49.874Z,2.80
2023-02-19T16:27:41.962Z,4.20
2023-02-19T16:30:10.832Z,3.30
2023-02-19T16:32:38.928Z,3.80
2023-02-19T16:35:42.390Z,3.30
2023-02-19T16:38:14.757Z,3.50
2023-02-19T16:40:49.381Z,2.40
2023-02-19T16:43:31.596Z,7.70
2023-02-19T16:46:00.623Z,7.30
2023-02-19T16:48:28.963Z,4.50
2023-02-19T16:50:57.636Z,4.00
2023-02-19T16:53:25.793Z,5.50
2023-02-19T16:55:56.534Z,6.10
2023-02-19T16:58:26.135Z,4.70
2023-02-19T17:00:55.304Z,3.90
2023-02-19T17:03:24.930Z,4.30
2023-02-19T17:05:53.418Z,3.20
2023-02-19T17:08:35.590Z,3.20
2023-02-19T17:11:31.832Z,4.50
2023-02-19T17:14:02.286Z,3.50
2023-02-19T17:16:41.230Z,4.40
2023-02-19T17:19:14.302Z,3.10
2023-02-19T17:21:44.550Z,3.70
2023-02-19T17:24:17.577Z,4.10
2023-02-19T17:26:48.234Z,3.30
2023-02-19T17:29:19.472Z,2.90
2023-02-19T17:31:53.049Z,1.10
2023-02-19T17:34:24.018Z,4.90
2023-02-19T17:36:53.212Z,3.50
2023-02-19T17:39:31.997Z,5.80
2023-02-19T17:42:03.073Z,4.20
2023-02-19T17:44:32.654Z,10.00
2023-02-19T17:47:02.021Z,3.10
2023-02-19T17:49:30.529Z,0.90
2023-02-19T17:51:59.775Z,5.20
2023-02-19T17:54:28.181Z,3.50
2023-02-19T17:56:56.422Z,3.20
2023-02-19T17:59:26.654Z,4.50
2023-02-19T18:01:57.474Z,5.70
2023-02-19T18:04:30.783Z,6.50
2023-02-19T18:07:04.396Z,3.50
2023-02-19T18:09:33.514Z,7.50
2023-02-19T18:12:02.995Z,7.60
2023-02-19T18:14:32.639Z,10.10
2023-02-19T18:17:04.232Z,10.70
2023-02-19T18:19:33.661Z,9.90
2023-02-19T18:22:02.589Z,7.50
2023-02-19T18:24:32.110Z,7.10
2023-02-19T18:27:01.385Z,7.10
2023-02-19T18:29:35.052Z,6.80
2023-02-19T18:32:10.299Z,6.40
2023-02-19T18:34:49.700Z,6.20
2023-02-19T18:37:22.064Z,7.60
2023-02-19T18:39:56.475Z,5.00
2023-02-19T18:42:28.700Z,9.80
2023-02-19T18:44:58.195Z,11.20
2023-02-19T18:47:27.298Z,10.30
2023-02-19T18:49:57.883Z,9.10
2023-02-19T18:52:32.854Z,9.50
2023-02-19T18:55:03.652Z,5.30
2023-02-19T18:57:33.729Z,6.90
2023-02-19T19:00:09.513Z,6.70
2023-02-19T19:02:49.245Z,8.70
2023-02-19T19:05:23.487Z,8.10
2023-02-19T19:07:55.592Z,5.90
2023-02-19T19:10:25.160Z,2.70
2023-02-19T19:13:15.460Z,6.10
2023-02-19T19:15:52.526Z,6.30
2023-02-19T19:18:25.573Z,3.50
2023-02-19T19:20:58.365Z,9.30
2023-02-19T19:23:27.378Z,7.90
2023-02-19T19:25:56.936Z,7.60
2023-02-19T19:28:25.002Z,9.40
2023-02-19T19:30:54.425Z,5.50
2023-02-19T19:33:23.136Z,4.90
2023-02-19T19:35:52.949Z,6.30
2023-02-19T19:38:21.226Z,5.10
2023-02-19T19:40:49.336Z,10.30
2023-02-19T19:43:17.718Z,6.90
2023-02-19T19:45:46.707Z,8.30
2023-02-19T19:48:15.979Z,7.40
2023-02-19T19:50:46.790Z,9.60
2023-02-19T19:53:16.881Z,9.90
2023-02-19T19:55:45.307Z,7.00
2023-02-19T19:58:14.438Z,12.30
2023-02-19T20:00:43.896Z,10.70
2023-02-19T20:03:13.038Z,11.70
2023-02-19T20:05:42.033Z,13.50
2023-02-19T20:08:12.251Z,15.40
2023-02-19T20:10:41.032Z,15.30
2023-02-19T20:13:09.457Z,10.10
2023-02-19T20:15:40.702Z,11.60
2023-02-19T20:18:09.539Z,9.00
2023-02-19T20:20:38.322Z,10.50
2023-02-19T20:23:06.680Z,6.40
2023-02-19T20:25:36.230Z,8.50
2023-02-19T20:28:09.702Z,13.70
2023-02-19T20:30:39.233Z,10.20
2023-02-19T20:33:09.906Z,10.40
2023-02-19T20:35:46.955Z,8.30
2023-02-19T20:38:19.657Z,10.20
2023-02-19T20:40:52.278Z,8.90
2023-02-19T20:43:21.238Z,7.90
2023-02-19T20:45:49.456Z,6.90
2023-02-19T20:48:32.883Z,6.40
2023-02-19T20:51:09.254Z,6.30
2023-02-19T20:53:44.284Z,8.00
2023-02-19T20:56:13.246Z,8.80
2023-02-19T20:58:44.997Z,5.70
2023-02-19T21:01:13.912Z,3.00
2023-02-19T21:03:42.119Z,6.50
2023-02-19T21:06:10.865Z,6.10
2023-02-19T21:08:40.437Z,4.90
2023-02-19T21:11:09.992Z,5.80
2023-02-19T21:13:43.407Z,4.30
2023-02-19T21:16:13.656Z,6.60
2023-02-19T21:18:45.806Z,6.50
2023-02-19T21:21:18.049Z,4.40
2023-02-19T21:23:47.773Z,5.00
2023-02-19T21:26:18.156Z,5.50
2023-02-19T21:28:47.929Z,5.10
2023-02-19T21:31:17.213Z,7.30
2023-02-19T21:33:54.432Z,3.90
2023-02-19T21:36:40.097Z,8.80
2023-02-19T21:39:24.210Z,5.60
2023-02-19T21:41:54.587Z,3.30
2023-02-19T21:44:23.210Z,6.30
2023-02-19T21:46:53.401Z,3.40
2023-02-19T21:49:21.761Z,5.10
2023-02-19T21:52:00.708Z,4.40
2023-02-19T21:54:36.732Z,9.30
2023-02-19T21:57:04.927Z,6.60
2023-02-19T21:59:33.619Z,7.30
2023-02-19T22:02:07.434Z,5.50
2023-02-19T22:04:37.426Z,6.00
2023-02-19T22:07:06.063Z,4.00
2023-02-19T22:09:34.711Z,9.20
2023-02-19T22:12:03.272Z,7.20
2023-02-19T22:14:31.496Z,4.20
2023-02-19T22:16:59.721Z,5.40
2023-02-19T22:19:28.124Z,5.80
2023-02-19T22:21:56.733Z,8.60
2023-02-19T22:24:25.225Z,4.60
2023-02-19T22:26:56.986Z,4.90
2023-02-19T22:29:25.332Z,5.70
2023-02-19T22:31:53.395Z,6.10
2023-02-19T22:34:21.646Z,6.20
2023-02-19T22:36:49.930Z,7.30
2023-02-19T22:39:23.120Z,4.50
2023-02-19T22:41:53.654Z,5.60
2023-02-19T22:44:21.853Z,2.80
2023-02-19T22:46:54.777Z,4.50
2023-02-19T22:49:23.328Z,4.70
2023-02-19T22:52:03.992Z,5.70
2023-02-19T22:54:32.084Z,2.70
2023-02-19T22:57:00.210Z,6.20
2023-02-19T22:59:28.227Z,4.10
2023-02-19T23:01:58.749Z,3.00
2023-02-19T23:04:28.148Z,3.90
2023-02-19T23:06:56.412Z,9.20
2023-02-19T23:09:26.262Z,5.40
2023-02-19T23:12:00.760Z,6.60
2023-02-19T23:14:29.045Z,7.10
2023-02-19T23:16:57.123Z,4.70
2023-02-19T23:19:25.409Z,7.50
2023-02-19T23:21:53.625Z,3.30
2023-02-19T23:24:21.702Z,4.20
2023-02-19T23:26:51.806Z,8.10
2023-02-19T23:29:23.803Z,6.70
2023-02-19T23:31:54.109Z,6.50
2023-02-19T23:34:22.400Z,5.30
2023-02-19T23:36:50.575Z,4.00
2023-02-19T23:39:20.304Z,5.80
2023-02-19T23:41:50.005Z,6.10
2023-02-19T23:44:18.774Z,4.60
2023-02-19T23:46:46.896Z,5.70
2023-02-19T23:49:15.052Z,6.10
2023-02-19T23:51:43.042Z,8.50
2023-02-19T23:54:11.010Z,3.30
2023-02-19T23:56:40.353Z,6.40
2023-02-19T23:59:08.396Z,9.50
